Warning: Javascript must be enabled to use all the features on this page!


Page Loading - Please Wait...

* We've detected you're using a mobile device. Find our Next Generation Station Page here.
Click to hideNews Bulletins

Peak Streamflow for the Nation

USGS 02295637 PEACE RIVER AT US 17 AT ZOLFO SPRINGS, FL

Hardee County, Florida
Hydrologic Unit Code 03100101
Latitude  27°30'15", Longitude  81°48'04" NAD27
Drainage area 826  square miles
Contributing drainage area 826  square miles
Gage datum 30.20 feet above NGVD29
Output formats
Table
Graph
Tab-separated file
peakfq (watstore) format
Reselect output format
Water
Year
Date Gage
Height
(feet)
Stream-
flow
(cfs)
1933 1933-09-06 20.05 26,300
1934 1934-06-22 15.505 9,850
1935 1935-09-07 13.20 6,500
1936 1936-02-17 11.82 4,700
1937 1937-07-03 9.89 3,440
1938 1938-07-14 9.27 2,740
1939 1939-06-17 15.525 10,200
1940 1940-07-07 9.17 2,970
1941 1941-07-17 9.95 4,200
1942 1942-06-13 10.74 4,130
1943 1943-08-06 10.63 4,050
1944 1943-10-05 9.62 3,320
1945 1945-06-25 16.63 12,200
1946 1945-10-13 10.12 3,680
1947 1947-09-20 19.15 21,000
1948 1948-09-24 16.55 11,500
1949 1949-08-29 18.11 15,900
1950 1949-10-01 14.30 8,070
1951 1950-10-20 9.44 3,370
1952 1951-10-04 9.08 3,160
1953 1953-08-30 15.39 9,300
1954 1953-10-11 13.11 6,140
1955 1955-09-10 8.50 2,610
1956 1956-08-24 7.57 2,110
1957 1957-05-14 12.12 5,470
1958 1958-01-26 11.60 5,040
1959 1959-09-18 15.89 9,540
1960 1960-09-12 18.61 17,000
1961 1961-02-09 7.83 2,110
1962 1962-09-23 13.06 6,270
1963 1963-02-28 10.58 4,010
1964 1964-02-07 9.50 3,360
1965 1965-08-12 16.096 4,630
1966 1966-02-24 15.47 4,140
1967 1967-08-16 13.46 2,580
1968 1968-07-20 16.34 4,420
1969 1969-09-23 15.70 3,910
1970 1969-10-04 15.43 3,690
1971 1971-09-15 14.99 3,360
1972 1972-06-20 16.34 4,420
1973 1973-04-07 15.74 3,940
1974 1974-07-07 17.09 4,870
1975 1975-09-15 11.45 1,440
1976 1975-10-30 16.03 3,950
1977 1977-09-05 13.13 2,050
1978 1978-07-30 15.29 3,360
1979 1979-09-17 15.82 3,750
1980 1979-10-01 17.16 4,940
1981 1981-09-08 13.64 2,550
1982 1982-06-20 19.38 6,370
1983 1982-10-07 15.17 3,160
1984 1983-12-31 10.86 1,350
1985 1985-09-06 14.77 2,920
1986 1986-08-07 12.37 1,830
1987 1987-04-01 14.65 2,850
1988 1988-09-09 19.54 6,490
1989 1989-09-27 9.89 1,110
1990 1990-02-24 11.67 1,580
1991 1991-08-25 14.46 2,750
1992 1992-08-12 15.03 3,020
1993 1992-10-05 12.39 1,760
1994 1994-09-18 17.20 4,810
1995 1995-09-04   6,8002
1996 1995-10-01   3,4701,2
1997 1997-08-14 14.55 2,750
1998 1998-03-21 21.33 11,900
1999 1999-09-29 10.47 1,270
2000 1999-10-06 12.57 1,920
2001 2001-09-16 19.70 6,480
2002 2002-07-03 16.31 3,930
2003 2003-06-24 17.96 4,980
2004 2004-09-08 22.39 8,470
2005 2005-07-03 17.002 4,580
2006 2006-09-12 13.46 2,190
2007 2007-02-03 6.49 337
2008 2008-08-20 12.17 1,430
2009 2009-09-06 13.26 2,100
2010 2010-08-28 13.11 2,030
2011 2011-07-01 12.09 1,660
2012 2011-10-11 17.60 3,520
2013 2013-07-27 15.99 2,660
2014 2014-07-24 12.12 1,440
2015 2015-08-21 17.60 3,520
2016 2016-09-06 16.10 2,710
2017 2017-09-12 23.782 11,3009
2018 2018-08-02 17.68 3,570
2019 2019-08-17 19.61 6,040
2020 2020-09-16 15.49 2,460
2021 2020-10-01 15.41 2,430
?
  Peak Gage-Height Qualification Codes.
?
  Peak Streamflow Qualification Codes.